Time;durP1;ratioP1;P1;durP2;ratioP2;P2;SDS_P1;SDS_P2;PMS_P1;PMS_P2;Temp;Humidity;BMP_temperature;BMP_pressure;BME280_temperature;BME280_humidity;BME280_pressure;Samples;Min_cycle;Max_cycle;Signal;HPM_P1;HPM_P2
2022/05/11 00:01:31;;;;;;;10.90;5.83;;;13.80;99.90;;;;;;5064696;28;20112;-79
2022/05/11 00:03:57;;;;;;;8.47;5.80;;;13.80;99.90;;;;;;5065366;28;20082;-79
2022/05/11 00:06:25;;;;;;;8.50;5.57;;;13.80;99.90;;;;;;5067124;28;20182;-79
2022/05/11 00:08:52;;;;;;;8.50;5.23;;;13.80;99.90;;;;;;5066714;28;20041;-79
2022/05/11 00:11:18;;;;;;;7.13;4.83;;;13.80;99.90;;;;;;5064162;28;20073;-78
2022/05/11 00:13:44;;;;;;;10.13;5.90;;;13.80;99.90;;;;;;5065601;28;20104;-79
2022/05/11 00:16:11;;;;;;;10.77;5.90;;;13.80;99.90;;;;;;5066275;28;20099;-79
2022/05/11 00:18:37;;;;;;;7.40;5.13;;;13.80;99.90;;;;;;5068037;28;20052;-78
2022/05/11 00:21:03;;;;;;;8.13;5.70;;;13.80;99.90;;;;;;5065691;28;20044;-78
2022/05/11 00:23:29;;;;;;;7.60;5.00;;;13.80;99.90;;;;;;5066462;28;20048;-79
2022/05/11 00:25:55;;;;;;;9.13;5.37;;;13.80;99.90;;;;;;5065630;28;20044;-78
2022/05/11 00:28:21;;;;;;;7.50;4.87;;;13.80;99.90;;;;;;5068152;28;20052;-79
2022/05/11 00:30:48;;;;;;;10.30;6.23;;;13.80;99.90;;;;;;5065092;28;20044;-78
2022/05/11 00:33:14;;;;;;;6.70;5.47;;;13.80;99.90;;;;;;5064418;28;20072;-78
2022/05/11 00:35:42;;;;;;;8.43;5.73;;;13.80;99.90;;;;;;5066332;28;20048;-78
2022/05/11 00:38:08;;;;;;;9.53;5.70;;;13.80;99.90;;;;;;5063647;28;20054;-78
2022/05/11 00:40:42;;;;;;;8.60;5.43;;;13.70;99.90;;;;;;5046972;28;20128;-76
2022/05/11 00:43:11;;;;;;;9.33;5.47;;;13.80;99.90;;;;;;5049027;28;20146;-78
2022/05/11 00:45:47;;;;;;;11.07;5.80;;;13.80;99.90;;;;;;5068071;28;20091;-79
2022/05/11 00:51:13;;;;;;;8.90;4.80;;;13.70;99.90;;;;;;5066729;28;20481;-79
2022/05/11 00:53:43;;;;;;;11.63;5.77;;;13.70;99.90;;;;;;5065157;28;20048;-79
2022/05/11 00:56:09;;;;;;;7.13;5.20;;;13.70;99.90;;;;;;5064645;28;20139;-79
2022/05/11 00:58:52;;;;;;;8.63;4.57;;;13.70;99.90;;;;;;5064271;28;20154;-79
2022/05/11 01:01:18;;;;;;;9.57;5.70;;;13.70;99.90;;;;;;5065566;28;20653;-79
2022/05/11 01:03:52;;;;;;;8.10;4.90;;;13.70;99.90;;;;;;5065882;28;20106;-79
2022/05/11 01:06:19;;;;;;;8.10;5.33;;;13.70;99.90;;;;;;5069232;28;20048;-79
2022/05/11 01:08:44;;;;;;;6.47;4.83;;;13.70;99.90;;;;;;5063729;28;20048;-79
2022/05/11 01:11:11;;;;;;;10.63;5.60;;;13.70;99.90;;;;;;5064989;28;20052;-78
2022/05/11 01:13:39;;;;;;;7.33;5.10;;;13.70;99.90;;;;;;5065802;28;20059;-79
2022/05/11 01:16:05;;;;;;;7.87;4.83;;;13.70;99.90;;;;;;5068974;28;20053;-79
2022/05/11 01:18:32;;;;;;;8.20;4.60;;;13.70;99.90;;;;;;5068940;28;20563;-79
2022/05/11 01:20:59;;;;;;;8.20;5.60;;;13.70;99.90;;;;;;5065835;28;20045;-79
2022/05/11 01:23:47;;;;;;;9.47;4.70;;;13.70;99.90;;;;;;5066436;28;20068;-79
2022/05/11 01:26:16;;;;;;;7.67;5.20;;;13.70;99.90;;;;;;5065632;28;20045;-78
2022/05/11 01:28:44;;;;;;;9.93;5.13;;;13.70;99.90;;;;;;5065756;28;20356;-79
2022/05/11 01:31:12;;;;;;;7.40;5.33;;;13.70;99.90;;;;;;5065352;28;20059;-77
2022/05/11 01:33:41;;;;;;;8.60;5.70;;;13.70;99.90;;;;;;5063077;28;21031;-79
2022/05/11 01:36:15;;;;;;;7.27;5.13;;;13.70;99.90;;;;;;5066407;28;20083;-78
2022/05/11 01:38:45;;;;;;;7.37;5.70;;;13.70;99.90;;;;;;5066288;28;20079;-78
2022/05/11 01:41:16;;;;;;;9.67;5.07;;;13.70;99.90;;;;;;5064565;28;20044;-78
2022/05/11 01:43:42;;;;;;;8.43;5.07;;;13.70;99.90;;;;;;5063891;28;20051;-78
2022/05/11 01:46:08;;;;;;;6.50;4.77;;;13.60;99.90;;;;;;5067662;28;20049;-78
2022/05/11 01:48:34;;;;;;;8.57;5.53;;;13.70;99.90;;;;;;5065411;28;20045;-78
2022/05/11 01:51:00;;;;;;;11.43;5.43;;;13.60;99.90;;;;;;5066584;28;20108;-79
2022/05/11 01:53:27;;;;;;;8.37;5.17;;;13.60;99.90;;;;;;5064106;28;20056;-78
2022/05/11 01:55:53;;;;;;;9.30;5.53;;;13.70;99.90;;;;;;5065353;28;20091;-79
2022/05/11 01:58:21;;;;;;;8.47;5.67;;;13.60;99.90;;;;;;5065449;28;20557;-78
2022/05/11 02:00:47;;;;;;;9.73;5.50;;;13.60;99.90;;;;;;5066217;28;20586;-78
2022/05/11 02:03:13;;;;;;;7.23;5.20;;;13.60;99.90;;;;;;5065403;28;20051;-79
2022/05/11 02:08:23;;;;;;;8.90;5.37;;;13.60;99.90;;;;;;5062685;28;20053;-78
2022/05/11 02:10:49;;;;;;;7.57;4.87;;;13.60;99.90;;;;;;5064666;28;20037;-78
2022/05/11 02:13:15;;;;;;;10.30;5.50;;;13.60;99.90;;;;;;5063340;28;20108;-78
2022/05/11 02:15:41;;;;;;;10.00;5.20;;;13.60;99.90;;;;;;5068915;28;20049;-79
2022/05/11 02:18:07;;;;;;;8.60;5.07;;;13.60;99.90;;;;;;5063945;28;20053;-79
2022/05/11 02:20:33;;;;;;;7.47;5.33;;;13.70;99.90;;;;;;5068376;28;20045;-80
2022/05/11 02:22:59;;;;;;;8.33;5.37;;;13.70;99.90;;;;;;5050409;28;20833;-79
2022/05/11 02:25:26;;;;;;;8.87;4.57;;;13.70;99.90;;;;;;5068222;28;20056;-79
2022/05/11 02:27:52;;;;;;;8.10;5.30;;;13.70;99.90;;;;;;5052774;28;20056;-80
2022/05/11 02:30:22;;;;;;;10.63;6.00;;;13.70;99.90;;;;;;5069808;28;20051;-78
2022/05/11 02:32:48;;;;;;;7.40;5.27;;;13.70;99.90;;;;;;5067519;28;20049;-79
2022/05/11 02:35:18;;;;;;;8.97;5.37;;;13.60;99.90;;;;;;5070074;28;20040;-79
2022/05/11 02:37:56;;;;;;;9.53;5.33;;;13.70;99.90;;;;;;5067897;28;20063;-79
2022/05/11 02:40:25;;;;;;;10.00;5.67;;;13.70;99.90;;;;;;5072023;28;20037;-79
2022/05/11 02:42:52;;;;;;;10.57;5.43;;;13.60;99.90;;;;;;5068451;28;20952;-79
2022/05/11 02:45:18;;;;;;;11.03;5.67;;;13.70;99.90;;;;;;5071862;28;20064;-79
2022/05/11 02:47:44;;;;;;;10.50;5.77;;;13.70;99.90;;;;;;5066663;28;20108;-78
2022/05/11 02:50:12;;;;;;;10.70;5.63;;;13.70;99.90;;;;;;5069973;28;20520;-79
2022/05/11 02:52:39;;;;;;;10.63;6.00;;;13.70;99.90;;;;;;5067586;28;20057;-79
2022/05/11 02:55:05;;;;;;;10.77;5.67;;;13.70;99.90;;;;;;5067412;28;20148;-79
2022/05/11 02:57:30;;;;;;;8.93;5.73;;;13.70;99.90;;;;;;5050414;28;20049;-79
2022/05/11 02:59:58;;;;;;;10.67;5.97;;;13.70;99.90;;;;;;5072433;28;20049;-78
2022/05/11 03:02:24;;;;;;;9.53;5.90;;;13.60;99.90;;;;;;5067422;28;20040;-79
2022/05/11 03:04:50;;;;;;;8.50;5.80;;;13.70;99.90;;;;;;5068323;28;20146;-79
2022/05/11 03:07:17;;;;;;;6.97;5.30;;;13.70;99.90;;;;;;5065128;28;20167;-79
2022/05/11 03:09:43;;;;;;;10.67;5.60;;;13.70;99.90;;;;;;5063873;28;20044;-78
2022/05/11 03:12:09;;;;;;;8.70;5.23;;;13.60;99.90;;;;;;5069948;28;20062;-78
2022/05/11 03:14:34;;;;;;;7.93;5.80;;;13.70;99.90;;;;;;5069147;28;20045;-78
2022/05/11 03:17:02;;;;;;;10.63;5.90;;;13.70;99.90;;;;;;5067824;28;20086;-79
2022/05/11 03:19:29;;;;;;;7.87;5.60;;;13.70;99.90;;;;;;5068519;28;20053;-79
2022/05/11 03:21:55;;;;;;;7.80;5.57;;;13.70;99.90;;;;;;5069591;28;20056;-79
2022/05/11 03:24:21;;;;;;;6.20;4.97;;;13.70;99.90;;;;;;5067898;28;20123;-79
2022/05/11 03:26:47;;;;;;;8.43;5.30;;;13.70;99.90;;;;;;5067454;28;20076;-78
2022/05/11 03:29:13;;;;;;;7.67;5.17;;;13.70;99.90;;;;;;5066704;28;20041;-80
2022/05/11 03:31:39;;;;;;;7.20;5.20;;;13.70;99.90;;;;;;5070059;28;20095;-78
2022/05/11 03:36:52;;;;;;;7.77;5.97;;;13.70;99.90;;;;;;5068104;28;20044;-78
2022/05/11 03:39:18;;;;;;;8.67;4.80;;;13.70;99.90;;;;;;5065798;28;20061;-79
2022/05/11 03:41:45;;;;;;;9.60;4.90;;;13.70;99.90;;;;;;5066884;28;20404;-78
2022/05/11 03:44:12;;;;;;;8.70;5.40;;;13.70;99.90;;;;;;5067475;28;20033;-79
2022/05/11 03:46:38;;;;;;;7.63;5.00;;;13.70;99.90;;;;;;5066410;28;20053;-79
2022/05/11 03:49:03;;;;;;;7.47;4.80;;;13.70;99.90;;;;;;5068853;28;20060;-79
2022/05/11 03:51:29;;;;;;;11.33;5.37;;;13.70;99.90;;;;;;5068400;28;20087;-78
2022/05/11 03:53:55;;;;;;;9.50;5.33;;;13.70;99.90;;;;;;5067135;28;20053;-79
2022/05/11 03:56:22;;;;;;;10.77;5.00;;;13.70;99.90;;;;;;5068586;28;20091;-78
2022/05/11 03:58:47;;;;;;;9.20;5.27;;;13.70;99.90;;;;;;5067497;28;20043;-79
2022/05/11 04:01:14;;;;;;;9.20;5.23;;;13.70;99.90;;;;;;5064763;28;20040;-78
2022/05/11 04:03:41;;;;;;;8.80;5.27;;;13.70;99.90;;;;;;5068116;28;20044;-79
2022/05/11 04:06:07;;;;;;;7.40;5.13;;;13.70;99.90;;;;;;5066276;28;20049;-78
2022/05/11 04:08:33;;;;;;;8.40;5.50;;;13.80;99.90;;;;;;5066707;28;20135;-78
2022/05/11 04:10:59;;;;;;;8.27;5.50;;;13.80;99.90;;;;;;5067952;28;20060;-78
2022/05/11 04:13:25;;;;;;;8.43;5.53;;;13.80;99.90;;;;;;5064786;28;20044;-79
2022/05/11 04:15:52;;;;;;;7.03;5.17;;;13.80;99.90;;;;;;5066774;28;20044;-79
2022/05/11 04:18:19;;;;;;;10.73;6.10;;;13.80;99.90;;;;;;5064228;28;20044;-79
2022/05/11 04:20:45;;;;;;;11.67;6.27;;;13.80;99.90;;;;;;5065390;28;20497;-79
2022/05/11 04:23:11;;;;;;;9.93;5.83;;;13.80;99.90;;;;;;5048382;28;20048;-79
2022/05/11 04:25:37;;;;;;;10.20;5.40;;;13.80;99.90;;;;;;5063960;28;20071;-79
2022/05/11 04:28:07;;;;;;;10.53;5.33;;;13.80;99.90;;;;;;5067016;28;20041;-78
2022/05/11 04:30:34;;;;;;;8.83;5.33;;;13.80;99.90;;;;;;5067987;28;20048;-79
2022/05/11 04:33:00;;;;;;;9.47;5.63;;;13.80;99.90;;;;;;5067008;28;20118;-80
2022/05/11 04:35:32;;;;;;;9.37;5.47;;;13.80;99.90;;;;;;5064262;28;20574;-79
2022/05/11 04:37:59;;;;;;;8.57;5.40;;;13.80;99.90;;;;;;5067547;28;20056;-79
2022/05/11 04:40:25;;;;;;;12.27;5.73;;;13.80;99.90;;;;;;5066821;28;20054;-78
2022/05/11 04:42:51;;;;;;;9.20;5.50;;;13.80;99.90;;;;;;5067887;28;20044;-78
2022/05/11 04:45:18;;;;;;;14.23;5.47;;;13.80;99.90;;;;;;5051107;28;20123;-77
2022/05/11 04:47:44;;;;;;;15.23;6.27;;;13.80;99.90;;;;;;5063806;28;20076;-78
2022/05/11 04:50:11;;;;;;;14.03;6.27;;;13.80;99.90;;;;;;5067454;28;20064;-78
2022/05/11 04:52:37;;;;;;;9.03;5.67;;;13.80;99.90;;;;;;5065308;28;20056;-78
2022/05/11 04:55:04;;;;;;;12.00;6.13;;;13.80;99.90;;;;;;5065512;28;20370;-77
2022/05/11 04:57:30;;;;;;;11.93;6.07;;;13.80;99.90;;;;;;5065350;28;20054;-78
2022/05/11 04:59:56;;;;;;;11.73;5.80;;;13.80;99.90;;;;;;5048916;28;20053;-77
2022/05/11 05:02:24;;;;;;;11.47;6.17;;;13.80;99.90;;;;;;5062608;28;20083;-78
2022/05/11 05:04:51;;;;;;;10.27;6.43;;;13.80;99.90;;;;;;5066159;28;20048;-79
2022/05/11 05:07:17;;;;;;;11.03;6.20;;;13.80;99.90;;;;;;5066551;28;20040;-81
2022/05/11 05:09:43;;;;;;;11.70;6.63;;;13.90;99.90;;;;;;5065987;28;20055;-83
2022/05/11 05:12:11;;;;;;;10.23;6.23;;;13.90;99.90;;;;;;5064862;28;20040;-80
2022/05/11 05:14:36;;;;;;;11.67;6.67;;;13.90;99.90;;;;;;5066520;28;20041;-78
2022/05/11 05:17:05;;;;;;;13.77;6.80;;;13.90;99.90;;;;;;5066283;28;20139;-77
2022/05/11 05:19:31;;;;;;;12.70;6.37;;;13.90;99.90;;;;;;5066177;28;20056;-78
2022/05/11 05:21:58;;;;;;;8.70;5.77;;;14.00;99.90;;;;;;5066470;28;20051;-86
2022/05/11 05:24:24;;;;;;;11.53;6.40;;;14.00;99.90;;;;;;5057293;28;20074;-82
2022/05/11 05:26:50;;;;;;;10.03;6.13;;;14.10;99.90;;;;;;5064964;28;20043;-79
2022/05/11 05:32:00;;;;;;;12.93;6.60;;;14.10;99.90;;;;;;5066362;28;20052;-79
2022/05/11 05:34:26;;;;;;;9.63;5.97;;;14.10;99.90;;;;;;5060963;28;20049;-78
2022/05/11 05:36:51;;;;;;;10.83;7.10;;;14.20;99.90;;;;;;5071280;28;20068;-80
2022/05/11 05:39:17;;;;;;;15.50;5.93;;;14.20;99.90;;;;;;5065724;28;20048;-80
2022/05/11 05:41:43;;;;;;;12.70;6.53;;;14.20;99.90;;;;;;5060366;28;20408;-79
2022/05/11 05:44:08;;;;;;;11.43;6.27;;;14.30;99.90;;;;;;5063495;28;20044;-79
2022/05/11 05:46:36;;;;;;;13.93;6.27;;;14.30;99.90;;;;;;5070087;28;20062;-80
2022/05/11 05:49:01;;;;;;;15.17;6.87;;;14.30;99.90;;;;;;5074998;28;20059;-77
2022/05/11 05:51:27;;;;;;;13.30;6.43;;;14.40;99.90;;;;;;5073981;28;20123;-78
2022/05/11 05:53:53;;;;;;;10.43;6.07;;;14.40;99.90;;;;;;5069652;28;20067;-77
2022/05/11 05:56:19;;;;;;;13.07;6.40;;;14.40;99.90;;;;;;5074514;28;20060;-77
2022/05/11 05:58:44;;;;;;;8.57;5.90;;;14.50;99.90;;;;;;5067751;28;20040;-76
2022/05/11 06:01:11;;;;;;;11.13;6.90;;;14.50;99.90;;;;;;5069425;28;20041;-76
2022/05/11 06:03:37;;;;;;;10.97;6.27;;;14.50;99.90;;;;;;5074756;28;20379;-76
2022/05/11 06:06:04;;;;;;;11.50;6.17;;;14.60;99.90;;;;;;5074945;28;20049;-76
2022/05/11 06:08:30;;;;;;;14.77;7.40;;;14.60;99.90;;;;;;5060351;28;20873;-75
2022/05/11 06:10:57;;;;;;;18.93;7.30;;;14.60;99.90;;;;;;5072151;28;20480;-77
2022/05/11 06:13:23;;;;;;;13.23;6.80;;;14.70;99.90;;;;;;5074850;28;20136;-75
2022/05/11 06:15:54;;;;;;;12.50;6.80;;;14.80;99.90;;;;;;5066114;28;20044;-76
2022/05/11 06:18:21;;;;;;;11.03;6.80;;;14.80;99.90;;;;;;5069736;28;20029;-75
2022/05/11 06:20:51;;;;;;;13.23;6.50;;;14.80;99.90;;;;;;5064966;28;20041;-76
2022/05/11 06:23:18;;;;;;;12.73;6.60;;;14.80;99.90;;;;;;5064398;28;20127;-75
2022/05/11 06:25:43;;;;;;;10.77;6.67;;;14.90;99.90;;;;;;5064408;28;20069;-75
2022/05/11 06:28:09;;;;;;;12.47;6.90;;;14.90;99.90;;;;;;5062014;28;20063;-75
2022/05/11 06:30:35;;;;;;;13.40;6.20;;;15.00;99.90;;;;;;5074585;28;20106;-75
2022/05/11 06:33:05;;;;;;;9.93;5.57;;;15.00;99.90;;;;;;5066574;28;20045;-75
2022/05/11 06:35:31;;;;;;;9.27;5.85;;;15.00;99.90;;;;;;5069334;28;20037;-74
2022/05/11 06:38:02;;;;;;;9.70;5.28;;;15.10;99.90;;;;;;5070285;28;20045;-75
2022/05/11 06:40:27;;;;;;;11.20;5.80;;;15.20;99.90;;;;;;5075050;28;20059;-76
2022/05/11 06:42:53;;;;;;;10.30;5.50;;;15.30;99.90;;;;;;5073936;28;20288;-73
2022/05/11 06:45:19;;;;;;;14.32;5.68;;;15.40;99.90;;;;;;5068319;28;20132;-75
2022/05/11 06:47:46;;;;;;;6.67;5.10;;;15.50;99.90;;;;;;5073995;28;20049;-75
2022/05/11 06:50:12;;;;;;;10.93;4.90;;;15.60;99.90;;;;;;5074435;28;20150;-75
2022/05/11 06:52:39;;;;;;;13.00;4.82;;;15.70;99.90;;;;;;5069628;28;20056;-75
2022/05/11 07:00:35;;;;;;;11.65;4.50;;;15.90;99.90;;;;;;5061165;28;20045;-76
2022/05/11 07:03:02;;;;;;;8.05;4.10;;;15.90;99.90;;;;;;5075214;28;20510;-75
2022/05/11 07:05:29;;;;;;;8.60;4.03;;;15.90;99.90;;;;;;5075518;28;20051;-75
2022/05/11 07:07:55;;;;;;;8.40;4.68;;;15.90;99.90;;;;;;5071636;28;20111;-73
2022/05/11 07:10:21;;;;;;;6.53;3.80;;;15.90;99.90;;;;;;5073061;28;20029;-74
2022/05/11 07:12:47;;;;;;;10.25;4.40;;;15.90;99.90;;;;;;5073729;28;20052;-73
2022/05/11 07:15:19;;;;;;;7.95;3.85;;;15.80;99.90;;;;;;5075730;28;20041;-74
2022/05/11 07:17:59;;;;;;;6.75;4.25;;;15.90;99.90;;;;;;5070050;28;20040;-73
2022/05/11 07:20:36;;;;;;;11.52;4.43;;;15.90;99.90;;;;;;5062635;28;20061;-73
2022/05/11 07:23:04;;;;;;;10.23;4.35;;;15.90;99.90;;;;;;5069374;28;20048;-74
2022/05/11 07:25:31;;;;;;;7.28;4.45;;;16.00;99.90;;;;;;5076118;28;20044;-74
2022/05/11 07:27:58;;;;;;;10.40;5.05;;;16.10;99.90;;;;;;5068171;28;20291;-74
2022/05/11 07:30:27;;;;;;;9.60;4.15;;;16.20;99.90;;;;;;5076402;28;20044;-74
2022/05/11 07:32:53;;;;;;;11.18;3.92;;;16.20;99.90;;;;;;5075731;28;20118;-74
2022/05/11 07:35:18;;;;;;;9.63;3.92;;;16.30;99.90;;;;;;5074831;28;20045;-74
2022/05/11 07:37:47;;;;;;;7.82;3.70;;;16.30;99.90;;;;;;5075244;28;20100;-73
2022/05/11 07:40:15;;;;;;;9.15;3.60;;;16.30;99.90;;;;;;5076930;28;20058;-73
2022/05/11 07:42:43;;;;;;;5.82;3.20;;;16.30;99.90;;;;;;5074472;28;20770;-74
2022/05/11 07:45:10;;;;;;;8.98;3.63;;;16.30;99.90;;;;;;5070710;28;20147;-73
2022/05/11 07:47:36;;;;;;;7.18;3.70;;;16.30;99.90;;;;;;5069812;28;20052;-74
2022/05/11 07:50:03;;;;;;;7.68;3.20;;;16.50;99.90;;;;;;5072628;28;20045;-73
2022/05/11 07:52:28;;;;;;;7.07;3.38;;;16.70;99.90;;;;;;5067575;28;20439;-73
2022/05/11 07:54:54;;;;;;;8.80;3.40;;;17.10;99.90;;;;;;5066460;28;20049;-75
2022/05/11 08:00:06;;;;;;;9.75;3.30;;;17.60;99.90;;;;;;5068842;28;20105;-74
2022/05/11 08:02:34;;;;;;;7.38;3.17;;;17.60;99.90;;;;;;5065910;28;20055;-73
2022/05/11 08:05:03;;;;;;;10.90;3.30;;;17.40;99.90;;;;;;5065541;28;20479;-74
2022/05/11 08:07:39;;;;;;;6.95;3.17;;;17.30;99.90;;;;;;5069290;28;21291;-74
2022/05/11 08:10:06;;;;;;;7.65;2.70;;;17.30;99.90;;;;;;5067623;28;20049;-73
2022/05/11 08:12:31;;;;;;;7.43;2.95;;;17.20;99.90;;;;;;5065476;28;20535;-74
2022/05/11 08:14:57;;;;;;;9.88;2.65;;;17.10;99.90;;;;;;5066876;28;20060;-74
2022/05/11 08:17:29;;;;;;;7.30;3.05;;;17.10;99.90;;;;;;5067388;28;20064;-74
2022/05/11 08:19:55;;;;;;;;;;;17.30;99.90;;;;;;5068787;28;20297;-74
2022/05/11 08:22:22;;;;;;;7.93;2.75;;;17.50;99.90;;;;;;5067287;28;19966;-73
2022/05/11 08:24:49;;;;;;;7.70;2.63;;;17.70;99.90;;;;;;5065667;28;20045;-74
2022/05/11 08:27:25;;;;;;;7.97;2.72;;;17.80;99.90;;;;;;5068715;28;20036;-74
2022/05/11 08:35:20;;;;;;;6.47;2.60;;;18.50;99.90;;;;;;5064879;28;20924;-74
2022/05/11 08:37:46;;;;;;;9.10;2.35;;;18.60;99.90;;;;;;5069253;28;20056;-74
2022/05/11 08:40:23;;;;;;;7.57;2.50;;;18.80;99.90;;;;;;5057579;28;20045;-74
2022/05/11 08:42:48;;;;;;;5.75;2.03;;;18.90;99.90;;;;;;5071831;28;20040;-73
2022/05/11 08:45:14;;;;;;;9.85;3.47;;;19.00;99.90;;;;;;5071615;28;20047;-73
2022/05/11 08:47:46;;;;;;;9.55;3.17;;;18.90;99.90;;;;;;5072658;28;20115;-73
2022/05/11 08:50:17;;;;;;;6.85;2.25;;;18.90;99.90;;;;;;5065734;28;20106;-74
2022/05/11 08:53:02;;;;;;;8.30;2.53;;;19.10;99.90;;;;;;5065990;28;20053;-74
2022/05/11 08:55:33;;;;;;;7.00;2.33;;;19.20;94.00;;;;;;5062284;28;20051;-74
2022/05/11 08:58:04;;;;;;;6.78;2.25;;;19.40;95.60;;;;;;5068778;28;20053;-73
2022/05/11 09:00:30;;;;;;;4.53;2.13;;;19.30;94.20;;;;;;5067673;28;20043;-74
2022/05/11 09:03:05;;;;;;;6.88;2.10;;;19.20;95.80;;;;;;5070036;28;20564;-74
2022/05/11 09:05:31;;;;;;;6.07;2.50;;;19.00;90.60;;;;;;5066852;28;20071;-74
2022/05/11 09:07:58;;;;;;;7.03;2.38;;;18.90;97.10;;;;;;5064634;28;20049;-74
2022/05/11 09:10:34;;;;;;;6.03;2.35;;;18.70;96.60;;;;;;5074644;28;20044;-73
2022/05/11 09:13:07;;;;;;;6.80;2.13;;;18.60;97.50;;;;;;5074868;28;20047;-73
2022/05/11 09:15:54;;;;;;;6.80;2.20;;;18.40;93.30;;;;;;5075609;28;20056;-73
2022/05/11 09:18:39;;;;;;;7.72;2.40;;;18.40;95.10;;;;;;5071867;28;20467;-73
2022/05/11 09:21:29;;;;;;;5.38;1.98;;;18.30;99.00;;;;;;5069268;28;20049;-73
2022/05/11 09:24:12;;;;;;;4.82;1.90;;;18.60;94.40;;;;;;5076049;28;20044;-74
2022/05/11 09:26:41;;;;;;;12.18;2.97;;;18.80;96.00;;;;;;5070473;28;20096;-73
2022/05/11 09:29:22;;;;;;;11.43;2.05;;;19.00;97.80;;;;;;5067079;28;20613;-73
2022/05/11 09:31:52;;;;;;;13.90;2.90;;;19.40;94.60;;;;;;5070944;28;20044;-73
2022/05/11 09:34:28;;;;;;;6.20;2.10;;;19.60;93.80;;;;;;5074055;28;20051;-73
2022/05/11 09:37:24;;;;;;;12.93;2.50;;;19.50;91.10;;;;;;5074365;28;20040;-73
2022/05/11 09:39:53;;;;;;;8.10;2.10;;;19.60;92.10;;;;;;5075961;28;20116;-74
2022/05/11 09:42:32;;;;;;;6.68;2.22;;;19.60;92.90;;;;;;5065012;28;20872;-73
2022/05/11 09:44:59;;;;;;;7.50;2.60;;;19.60;86.20;;;;;;5071967;28;20064;-74
2022/05/11 09:47:27;;;;;;;9.88;2.20;;;19.60;93.70;;;;;;5074676;28;20055;-74
2022/05/11 09:49:55;;;;;;;11.38;2.30;;;19.60;93.10;;;;;;5075758;28;20729;-78
2022/05/11 09:52:30;;;;;;;7.70;1.90;;;19.80;93.50;;;;;;5072837;28;20373;-75
2022/05/11 09:54:56;;;;;;;4.50;2.10;;;20.10;90.20;;;;;;5071360;28;20059;-75
2022/05/11 09:57:27;;;;;;;8.10;2.20;;;20.10;91.20;;;;;;5074613;28;20098;-76
2022/05/11 10:00:14;;;;;;;4.50;1.80;;;20.10;88.80;;;;;;5072474;28;20072;-76
2022/05/11 10:02:45;;;;;;;7.22;2.00;;;19.80;87.90;;;;;;5074438;28;20563;-76
2022/05/11 10:05:26;;;;;;;8.13;2.25;;;19.60;87.80;;;;;;5068573;28;20039;-75
2022/05/11 10:08:23;;;;;;;5.00;1.70;;;19.80;89.90;;;;;;5064364;28;20032;-76
2022/05/11 10:11:10;;;;;;;6.78;2.03;;;20.20;88.50;;;;;;5065886;28;20100;-75
2022/05/11 10:13:42;;;;;;;8.18;1.60;;;20.60;80.10;;;;;;5073983;28;20052;-76
2022/05/11 10:22:05;;;;;;;4.80;1.00;;;20.70;73.80;;;;;;5071813;28;20049;-76
2022/05/11 10:25:03;;;;;;;8.20;1.25;;;21.00;72.90;;;;;;5073832;28;20044;-74
2022/05/11 10:27:37;;;;;;;6.15;1.40;;;21.30;72.30;;;;;;5074769;28;20091;-75
2022/05/11 10:30:21;;;;;;;7.35;1.40;;;21.50;71.70;;;;;;5064288;28;20052;-76
2022/05/11 10:33:10;;;;;;;5.32;1.45;;;21.50;63.50;;;;;;5065063;28;20278;-75
2022/05/11 10:35:47;;;;;;;5.00;1.30;;;21.60;64.90;;;;;;5068269;28;20426;-76
2022/05/11 10:38:22;;;;;;;4.63;1.30;;;21.80;65.40;;;;;;5072193;28;20052;-76
2022/05/11 10:41:18;;;;;;;4.35;1.20;;;22.10;66.30;;;;;;5072412;28;20106;-75
2022/05/11 10:43:47;;;;;;;6.25;1.48;;;22.00;60.50;;;;;;5069821;28;20052;-75
2022/05/11 10:46:45;;;;;;;5.03;1.23;;;21.90;64.30;;;;;;5066097;28;20040;-75
2022/05/11 10:49:32;;;;;;;5.15;1.80;;;22.10;63.40;;;;;;5069773;28;20040;-75
2022/05/11 10:52:26;;;;;;;3.50;1.27;;;22.20;58.80;;;;;;5069766;28;20044;-75
2022/05/11 10:55:25;;;;;;;3.45;1.33;;;22.00;60.10;;;;;;5069657;28;20071;-76
2022/05/11 10:57:53;;;;;;;3.63;1.13;;;22.10;61.70;;;;;;5073107;28;20044;-75
2022/05/11 11:00:22;;;;;;;4.18;1.27;;;21.90;62.40;;;;;;5076404;28;20059;-75
2022/05/11 11:03:29;;;;;;;11.20;1.35;;;21.80;62.10;;;;;;5071740;28;20041;-76
2022/05/11 11:09:02;;;;;;;7.47;1.90;;;21.80;61.80;;;;;;5063701;28;20045;-76
2022/05/11 11:11:37;;;;;;;7.20;1.73;;;21.90;62.20;;;;;;5075798;28;20059;-75
2022/05/11 11:14:07;;;;;;;6.13;1.60;;;21.80;61.80;;;;;;5075189;28;20095;-75
2022/05/11 11:16:35;;;;;;;6.88;1.98;;;21.60;62.70;;;;;;5072148;28;20056;-75
2022/05/11 11:19:06;;;;;;;4.97;1.60;;;21.60;63.20;;;;;;5058855;28;20056;-75
2022/05/11 11:21:32;;;;;;;7.35;1.83;;;21.60;63.70;;;;;;5070905;28;20048;-75
2022/05/11 11:24:22;;;;;;;6.97;1.80;;;21.60;63.60;;;;;;5077148;28;20530;-76
2022/05/11 11:27:08;;;;;;;6.82;1.67;;;21.80;61.10;;;;;;5066475;28;20087;-76
2022/05/11 11:29:36;;;;;;;7.10;1.77;;;22.10;60.20;;;;;;5076433;28;20047;-76
2022/05/11 11:32:06;;;;;;;7.05;1.88;;;22.30;62.80;;;;;;5077314;28;20060;-76
2022/05/11 11:34:38;;;;;;;4.72;1.75;;;22.40;61.70;;;;;;5077225;28;20056;-75
2022/05/11 11:37:22;;;;;;;;;;;22.10;60.20;;;;;;5076326;28;20058;-75
2022/05/11 11:39:55;;;;;;;5.00;1.20;;;22.00;58.80;;;;;;5072460;28;20015;-75
2022/05/11 11:42:38;;;;;;;5.50;1.77;;;22.10;59.30;;;;;;5072611;28;20835;-76
2022/05/11 11:45:09;;;;;;;5.05;1.50;;;22.30;59.70;;;;;;5077157;28;20056;-76
2022/05/11 11:47:37;;;;;;;;;;;22.30;59.60;;;;;;5054411;28;20044;-76
2022/05/11 11:50:08;;;;;;;4.15;1.90;;;22.30;58.50;;;;;;5065259;28;19931;-75
2022/05/11 11:52:37;;;;;;;7.55;1.63;;;22.10;59.40;;;;;;5074066;28;20055;-75
2022/05/11 11:55:28;;;;;;;5.45;2.30;;;22.00;61.00;;;;;;5070565;28;20084;-75
2022/05/11 11:58:11;;;;;;;7.93;1.55;;;22.20;61.20;;;;;;5072739;28;20052;-75
2022/05/11 12:00:46;;;;;;;7.45;2.05;;;22.30;61.40;;;;;;5065062;28;20108;-75
2022/05/11 12:03:16;;;;;;;6.82;1.45;;;22.30;58.90;;;;;;5075743;28;20805;-75
2022/05/11 12:05:52;;;;;;;4.03;1.40;;;22.40;59.40;;;;;;5074839;28;20181;-75
2022/05/11 12:16:58;;;;;;;4.82;1.42;;;22.60;56.60;;;;;;5075386;28;20044;-74
2022/05/11 12:19:27;;;;;;;4.78;1.67;;;22.50;57.10;;;;;;5076097;28;20040;-74
2022/05/11 12:22:18;;;;;;;5.07;1.85;;;22.60;57.40;;;;;;5074101;28;20048;-74
2022/05/11 12:24:47;;;;;;;7.60;2.00;;;22.50;57.10;;;;;;5075759;28;20056;-72
2022/05/11 12:27:27;;;;;;;4.82;1.60;;;22.50;58.10;;;;;;5076356;28;20495;-73
2022/05/11 12:29:58;;;;;;;5.63;1.50;;;22.70;56.80;;;;;;5073922;28;20069;-75
2022/05/11 12:32:25;;;;;;;9.43;2.25;;;22.80;56.90;;;;;;5067415;28;20049;-75
2022/05/11 12:34:51;;;;;;;5.57;1.85;;;22.70;56.90;;;;;;5074838;28;20067;-76
2022/05/11 12:37:29;;;;;;;8.07;1.92;;;22.80;56.50;;;;;;5075674;28;20048;-77
2022/05/11 12:39:58;;;;;;;6.70;1.75;;;22.90;56.40;;;;;;5061814;28;20040;-74
2022/05/11 12:42:39;;;;;;;7.85;1.75;;;22.90;56.40;;;;;;5068120;28;20044;-75
2022/05/11 12:45:11;;;;;;;7.00;1.60;;;23.10;56.60;;;;;;5076039;28;20037;-75
2022/05/11 12:47:40;;;;;;;;;;;23.10;55.90;;;;;;5075369;28;20044;-75
2022/05/11 12:50:06;;;;;;;4.95;1.60;;;23.00;54.20;;;;;;5074436;28;19950;-75
2022/05/11 12:52:34;;;;;;;5.90;1.55;;;23.20;57.20;;;;;;5070310;28;20110;-74
2022/05/11 12:55:03;;;;;;;7.07;1.95;;;23.20;57.30;;;;;;5075089;28;20049;-75
2022/05/11 12:57:42;;;;;;;5.35;1.58;;;23.10;56.20;;;;;;5069021;28;20049;-74
2022/05/11 13:00:18;;;;;;;6.40;2.10;;;23.00;55.30;;;;;;5062538;28;20056;-74
2022/05/11 13:02:45;;;;;;;9.10;1.70;;;22.60;56.20;;;;;;5063911;28;21275;-74
2022/05/11 13:05:16;;;;;;;8.07;2.25;;;22.40;57.00;;;;;;5068890;28;20052;-74
2022/05/11 13:08:03;;;;;;;6.53;1.90;;;22.40;56.60;;;;;;5072084;28;20156;-74
2022/05/11 13:10:38;;;;;;;8.23;2.00;;;22.50;56.30;;;;;;5057239;28;20072;-74
2022/05/11 13:13:11;;;;;;;7.53;1.77;;;22.50;57.10;;;;;;5058622;28;20099;-74
2022/05/11 13:15:45;;;;;;;8.77;2.08;;;22.40;57.00;;;;;;5070277;28;20119;-74
2022/05/11 13:18:28;;;;;;;4.50;1.90;;;22.30;57.20;;;;;;5071188;28;20040;-74
2022/05/11 13:20:58;;;;;;;9.80;2.03;;;22.40;55.40;;;;;;5063971;28;20056;-73
2022/05/11 13:23:31;;;;;;;7.43;1.85;;;22.60;56.90;;;;;;5074118;28;20044;-73
2022/05/11 13:26:00;;;;;;;7.05;2.40;;;22.50;56.70;;;;;;5074006;28;20052;-72
2022/05/11 13:28:32;;;;;;;6.20;1.60;;;22.30;56.60;;;;;;5066334;28;20068;-73
2022/05/11 13:31:02;;;;;;;5.40;1.95;;;22.10;56.60;;;;;;5067744;28;20182;-73
2022/05/11 13:33:34;;;;;;;8.85;2.10;;;22.10;56.70;;;;;;5073686;28;20055;-73
2022/05/11 13:36:23;;;;;;;;;;;22.30;57.50;;;;;;5068528;28;20044;-73
2022/05/11 13:38:54;;;;;;;9.10;2.40;;;21.90;57.60;;;;;;5059806;28;20302;-73
2022/05/11 13:41:34;;;;;;;10.23;2.25;;;21.90;58.80;;;;;;5074518;28;20100;-73
2022/05/11 13:44:25;;;;;;;7.35;2.30;;;22.20;58.70;;;;;;5074629;28;20070;-72